createdAt,value
2018-12-18T00:00:17.130Z,5.28
2018-12-18T00:00:52.246Z,5.34
2018-12-18T00:01:29.035Z,5.37
2018-12-18T00:02:06.554Z,5.35
2018-12-18T00:02:41.541Z,5.42
2018-12-18T00:03:16.160Z,5.42
2018-12-18T00:03:50.794Z,5.42
2018-12-18T00:04:25.548Z,5.47
2018-12-18T00:05:04.299Z,5.53
2018-12-18T00:05:38.933Z,5.47
2018-12-18T00:06:13.673Z,5.53
2018-12-18T00:06:48.422Z,5.45
2018-12-18T00:07:23.146Z,5.36
2018-12-18T00:07:57.768Z,5.29
2018-12-18T00:08:32.426Z,5.33
2018-12-18T00:09:08.309Z,5.32
2018-12-18T00:09:42.934Z,5.32
2018-12-18T00:10:17.711Z,5.28
2018-12-18T00:10:58.014Z,5.34
2018-12-18T00:11:32.619Z,5.40
2018-12-18T00:12:07.274Z,5.35
2018-12-18T00:12:41.885Z,5.39
2018-12-18T00:13:16.625Z,5.36
2018-12-18T00:13:51.253Z,5.30
2018-12-18T00:14:25.880Z,5.29
2018-12-18T00:15:00.525Z,5.24
2018-12-18T00:15:35.182Z,5.37
2018-12-18T00:16:09.884Z,5.41
2018-12-18T00:16:44.505Z,5.35
2018-12-18T00:17:19.369Z,5.35
2018-12-18T00:17:54.031Z,5.31
2018-12-18T00:18:29.035Z,5.33
2018-12-18T00:19:03.632Z,5.33
2018-12-18T00:19:38.281Z,5.33
2018-12-18T00:20:12.902Z,5.35
2018-12-18T00:20:47.497Z,5.35
2018-12-18T00:21:22.233Z,5.31
2018-12-18T00:21:56.935Z,5.21
2018-12-18T00:22:31.640Z,5.29
2018-12-18T00:23:06.250Z,5.23
2018-12-18T00:23:40.897Z,5.34
2018-12-18T00:24:15.782Z,5.41
2018-12-18T00:24:50.430Z,5.45
2018-12-18T00:25:25.157Z,5.41
2018-12-18T00:25:59.774Z,5.29
2018-12-18T00:26:34.407Z,5.28
2018-12-18T00:27:09.013Z,5.32
2018-12-18T00:27:43.651Z,5.32
2018-12-18T00:28:18.285Z,5.25
2018-12-18T00:28:53.103Z,5.26
2018-12-18T00:29:27.714Z,5.31
2018-12-18T00:30:02.500Z,5.25
2018-12-18T00:30:38.977Z,5.31
2018-12-18T00:31:13.591Z,5.29
2018-12-18T00:31:48.291Z,5.25
2018-12-18T00:32:22.974Z,5.24
2018-12-18T00:32:57.619Z,5.24
2018-12-18T00:33:32.321Z,5.23
2018-12-18T00:34:06.977Z,5.29
2018-12-18T00:34:41.568Z,5.30
2018-12-18T00:35:16.211Z,5.34
2018-12-18T00:35:50.901Z,5.32
2018-12-18T00:36:25.529Z,5.36
2018-12-18T00:37:00.157Z,5.35
2018-12-18T00:37:34.954Z,5.33
2018-12-18T00:38:09.597Z,5.30
2018-12-18T00:38:44.222Z,5.39
2018-12-18T00:39:19.191Z,5.39
2018-12-18T00:39:53.924Z,5.36
2018-12-18T00:40:28.585Z,5.38
2018-12-18T00:41:03.736Z,5.48
2018-12-18T00:41:38.470Z,5.51
2018-12-18T00:42:13.177Z,5.59
2018-12-18T00:42:47.823Z,5.50
2018-12-18T00:43:22.477Z,5.49
2018-12-18T00:43:57.200Z,5.43
2018-12-18T00:44:31.800Z,5.37
2018-12-18T00:45:07.644Z,5.40
2018-12-18T00:45:42.569Z,5.35
2018-12-18T00:46:17.206Z,5.30
2018-12-18T00:46:51.862Z,5.37
2018-12-18T00:47:26.577Z,5.45
2018-12-18T00:48:01.171Z,5.38
2018-12-18T00:48:35.800Z,5.44
2018-12-18T00:49:10.429Z,5.53
2018-12-18T00:49:45.121Z,5.55
2018-12-18T00:50:19.976Z,5.45
2018-12-18T00:50:54.644Z,5.31
2018-12-18T00:51:29.246Z,5.33
2018-12-18T00:52:03.861Z,5.34
2018-12-18T00:52:38.493Z,5.38
2018-12-18T00:53:13.100Z,5.36
2018-12-18T00:53:47.799Z,5.39
2018-12-18T00:54:22.923Z,5.43
2018-12-18T00:54:57.544Z,5.50
2018-12-18T00:55:32.247Z,5.50
2018-12-18T00:56:06.980Z,5.46
2018-12-18T00:56:41.574Z,5.38
2018-12-18T00:57:16.317Z,5.42
2018-12-18T00:57:50.995Z,5.51
2018-12-18T00:58:25.728Z,5.58
2018-12-18T00:59:00.352Z,5.56
2018-12-18T00:59:34.968Z,5.49
2018-12-18T01:00:10.568Z,5.53
2018-12-18T01:00:45.405Z,5.55
2018-12-18T01:01:20.113Z,5.58
2018-12-18T01:02:01.475Z,5.53
2018-12-18T01:02:36.144Z,5.60
2018-12-18T01:03:10.902Z,5.53
2018-12-18T01:03:45.466Z,5.46
2018-12-18T01:04:20.146Z,5.40
2018-12-18T01:04:54.754Z,5.39
2018-12-18T01:05:29.372Z,5.45
2018-12-18T01:06:04.425Z,5.46
2018-12-18T01:06:39.055Z,5.49
2018-12-18T01:07:13.675Z,5.61
2018-12-18T01:07:53.315Z,5.58
2018-12-18T01:08:24.993Z,5.61
2018-12-18T01:08:59.656Z,5.53
2018-12-18T01:09:34.284Z,5.58
2018-12-18T01:10:09.407Z,5.52
2018-12-18T01:10:44.055Z,5.50
2018-12-18T01:11:18.728Z,5.48
2018-12-18T01:11:53.370Z,5.52
2018-12-18T01:12:28.055Z,5.62
2018-12-18T01:13:02.725Z,5.63
2018-12-18T01:13:37.388Z,5.57
2018-12-18T01:14:12.019Z,5.57
2018-12-18T01:14:46.666Z,5.66
2018-12-18T01:15:21.429Z,5.56
2018-12-18T01:15:56.045Z,5.53
2018-12-18T01:16:31.229Z,5.46
2018-12-18T01:17:05.891Z,5.51
2018-12-18T01:17:40.518Z,5.51
2018-12-18T01:18:15.626Z,5.50
2018-12-18T01:18:50.441Z,5.54
2018-12-18T01:19:25.187Z,5.51
2018-12-18T01:19:59.802Z,5.60
2018-12-18T01:20:34.464Z,5.51
2018-12-18T01:21:09.533Z,5.51
2018-12-18T01:21:44.328Z,5.43
2018-12-18T01:22:18.967Z,5.41
2018-12-18T01:22:53.594Z,5.51
2018-12-18T01:23:28.544Z,5.51
2018-12-18T01:24:03.165Z,5.57
2018-12-18T01:24:37.829Z,5.69
2018-12-18T01:25:12.624Z,5.69
2018-12-18T01:25:47.369Z,5.58
2018-12-18T01:26:22.083Z,5.57
2018-12-18T01:26:56.689Z,5.49
2018-12-18T01:27:31.451Z,5.50
2018-12-18T01:28:06.105Z,5.46
2018-12-18T01:28:40.711Z,5.36
2018-12-18T01:29:15.368Z,5.40
2018-12-18T01:29:49.986Z,5.50
2018-12-18T01:30:25.181Z,5.42
2018-12-18T01:30:59.812Z,5.33
2018-12-18T01:31:34.562Z,5.42
2018-12-18T01:32:09.209Z,5.44
2018-12-18T01:32:43.833Z,5.46
2018-12-18T01:33:18.482Z,5.39
2018-12-18T01:33:59.149Z,5.47
2018-12-18T01:34:29.689Z,5.55
2018-12-18T01:35:05.900Z,5.54
2018-12-18T01:35:40.608Z,5.51
2018-12-18T01:36:15.337Z,5.43
2018-12-18T01:36:49.967Z,5.50
2018-12-18T01:37:24.695Z,5.42
2018-12-18T01:37:59.411Z,5.38
2018-12-18T01:38:34.162Z,5.35
2018-12-18T01:39:08.818Z,5.49
2018-12-18T01:39:43.408Z,5.49
2018-12-18T01:40:18.037Z,5.34
2018-12-18T01:40:52.772Z,5.34
2018-12-18T01:41:27.486Z,5.33
2018-12-18T01:42:02.145Z,5.29
2018-12-18T01:42:36.782Z,5.19
2018-12-18T01:43:11.878Z,5.24
2018-12-18T01:43:46.662Z,5.25
2018-12-18T01:44:21.295Z,5.30
2018-12-18T01:44:55.939Z,5.23
2018-12-18T01:45:30.677Z,5.19
2018-12-18T01:46:05.331Z,5.21
2018-12-18T01:46:39.951Z,5.16
2018-12-18T01:47:15.082Z,5.12
2018-12-18T01:47:49.749Z,5.20
2018-12-18T01:48:24.432Z,5.21
2018-12-18T01:48:59.064Z,5.27
2018-12-18T01:49:33.657Z,5.35
2018-12-18T01:50:09.193Z,5.35
2018-12-18T01:50:43.829Z,5.32
2018-12-18T01:51:18.467Z,5.27
2018-12-18T01:51:53.178Z,5.23
2018-12-18T01:52:27.844Z,5.18
2018-12-18T01:53:02.516Z,5.18
2018-12-18T01:53:37.194Z,5.19
2018-12-18T01:54:11.797Z,5.18
2018-12-18T01:54:46.437Z,5.23
2018-12-18T01:55:21.133Z,5.09
2018-12-18T01:55:55.807Z,5.20
2018-12-18T01:56:30.437Z,5.17
2018-12-18T01:57:05.116Z,5.20
2018-12-18T01:57:39.733Z,5.29
2018-12-18T01:58:14.362Z,5.23
2018-12-18T01:58:49.006Z,5.24
2018-12-18T01:59:23.758Z,5.21
2018-12-18T01:59:58.379Z,5.30
2018-12-18T02:00:33.037Z,5.32
2018-12-18T02:01:07.760Z,5.32
2018-12-18T02:01:42.841Z,5.40
2018-12-18T02:02:18.136Z,5.43
2018-12-18T02:02:52.821Z,5.40
2018-12-18T02:03:27.934Z,5.38
2018-12-18T02:04:05.987Z,5.31
2018-12-18T02:04:39.145Z,5.24
2018-12-18T02:05:13.902Z,5.29
2018-12-18T02:05:48.566Z,5.28
2018-12-18T02:06:23.288Z,5.22
2018-12-18T02:06:57.993Z,5.23
2018-12-18T02:07:32.594Z,5.32
2018-12-18T02:08:07.218Z,5.25
2018-12-18T02:08:41.878Z,5.24
2018-12-18T02:09:16.561Z,5.24
2018-12-18T02:09:51.296Z,5.24
2018-12-18T02:10:26.673Z,5.24
2018-12-18T02:11:01.327Z,5.26
2018-12-18T02:11:36.029Z,5.30
2018-12-18T02:12:10.666Z,5.32
2018-12-18T02:12:45.300Z,5.23
2018-12-18T02:13:20.162Z,5.22
2018-12-18T02:13:54.810Z,5.15
2018-12-18T02:14:29.525Z,5.21
2018-12-18T02:15:05.713Z,5.28
2018-12-18T02:15:40.389Z,5.18
2018-12-18T02:16:15.002Z,5.16
2018-12-18T02:16:49.714Z,5.14
2018-12-18T02:17:24.305Z,5.16
2018-12-18T02:17:58.905Z,5.22
2018-12-18T02:18:33.573Z,5.24
2018-12-18T02:19:08.205Z,5.28
2018-12-18T02:19:42.834Z,5.35
2018-12-18T02:20:17.504Z,5.32
2018-12-18T02:20:52.120Z,5.35
2018-12-18T02:21:26.829Z,5.41
2018-12-18T02:22:01.435Z,5.42
2018-12-18T02:22:36.076Z,5.40
2018-12-18T02:23:10.796Z,5.39
2018-12-18T02:23:45.418Z,5.34
2018-12-18T02:24:20.058Z,5.30
2018-12-18T02:24:54.665Z,5.30
2018-12-18T02:25:29.361Z,5.27
2018-12-18T02:26:04.472Z,5.19
2018-12-18T02:26:39.101Z,5.29
2018-12-18T02:27:13.755Z,5.29
2018-12-18T02:27:48.374Z,5.26
2018-12-18T02:28:23.008Z,5.22
2018-12-18T02:28:57.635Z,5.24
2018-12-18T02:29:32.258Z,5.21
2018-12-18T02:30:07.763Z,5.30
2018-12-18T02:30:42.531Z,5.32
2018-12-18T02:31:17.246Z,5.36
2018-12-18T02:31:51.938Z,5.36
2018-12-18T02:32:26.555Z,5.38
2018-12-18T02:33:01.180Z,5.34
2018-12-18T02:33:35.813Z,5.34
2018-12-18T02:34:13.804Z,5.42
2018-12-18T02:34:47.031Z,5.49
2018-12-18T02:35:21.723Z,5.55
2018-12-18T02:35:56.352Z,5.58
2018-12-18T02:36:31.031Z,5.55
2018-12-18T02:37:05.659Z,5.49
2018-12-18T02:37:40.534Z,5.47
2018-12-18T02:38:15.142Z,5.41
2018-12-18T02:38:49.809Z,5.39
2018-12-18T02:39:24.448Z,5.36
2018-12-18T02:39:59.310Z,5.31
2018-12-18T02:40:34.224Z,5.28
2018-12-18T02:41:08.853Z,5.30
2018-12-18T02:41:43.993Z,5.41
2018-12-18T02:42:19.600Z,5.40
2018-12-18T02:42:54.261Z,5.44
2018-12-18T02:43:28.898Z,5.42
2018-12-18T02:44:03.499Z,5.35
2018-12-18T02:44:38.120Z,5.34
2018-12-18T02:45:12.757Z,5.31
2018-12-18T02:45:47.382Z,5.28
2018-12-18T02:46:22.141Z,5.31
2018-12-18T02:46:56.766Z,5.32
2018-12-18T02:47:31.834Z,5.31
2018-12-18T02:48:06.440Z,5.39
2018-12-18T02:48:41.117Z,5.46
2018-12-18T02:49:15.809Z,5.39
2018-12-18T02:49:50.542Z,5.36
2018-12-18T02:50:25.245Z,5.34
2018-12-18T02:50:59.857Z,5.34
2018-12-18T02:51:34.484Z,5.40
2018-12-18T02:52:09.162Z,5.37
2018-12-18T02:52:43.764Z,5.36
2018-12-18T02:53:18.390Z,5.31
2018-12-18T02:53:53.128Z,5.31
2018-12-18T02:54:27.749Z,5.35
2018-12-18T02:55:02.452Z,5.37
2018-12-18T02:55:37.056Z,5.31
2018-12-18T02:56:11.695Z,5.31
2018-12-18T02:56:46.416Z,5.29
2018-12-18T02:57:21.061Z,5.36
2018-12-18T02:57:55.688Z,5.57
2018-12-18T02:58:30.717Z,5.57
2018-12-18T02:59:05.392Z,5.54
2018-12-18T02:59:40.674Z,5.53
2018-12-18T03:00:15.797Z,5.53
2018-12-18T03:00:50.464Z,5.47
2018-12-18T03:01:25.186Z,5.46
2018-12-18T03:01:59.800Z,5.43
2018-12-18T03:02:34.502Z,5.53
2018-12-18T03:03:09.104Z,5.57
2018-12-18T03:03:43.717Z,5.65
2018-12-18T03:04:21.725Z,5.71
2018-12-18T03:04:54.980Z,5.77
2018-12-18T03:05:29.592Z,5.69
2018-12-18T03:06:04.251Z,5.73
2018-12-18T03:06:39.346Z,5.62
2018-12-18T03:07:13.933Z,5.59
2018-12-18T03:07:48.628Z,5.61
2018-12-18T03:08:23.411Z,5.65
2018-12-18T03:08:58.037Z,5.69
2018-12-18T03:09:32.756Z,5.70
2018-12-18T03:10:07.823Z,5.74
2018-12-18T03:10:42.436Z,5.68
2018-12-18T03:11:21.354Z,5.60
2018-12-18T03:11:56.006Z,5.64
2018-12-18T03:12:30.619Z,5.64
2018-12-18T03:13:05.231Z,5.58
2018-12-18T03:13:39.845Z,5.61
2018-12-18T03:14:14.483Z,5.72
2018-12-18T03:14:49.197Z,5.63
2018-12-18T03:15:23.803Z,5.71
2018-12-18T03:15:58.554Z,5.63
2018-12-18T03:16:33.187Z,5.54
2018-12-18T03:17:07.843Z,5.49
2018-12-18T03:17:42.501Z,5.45
2018-12-18T03:18:17.102Z,5.50
2018-12-18T03:18:51.816Z,5.57
2018-12-18T03:19:26.881Z,5.57
2018-12-18T03:20:01.604Z,5.53
2018-12-18T03:20:36.498Z,5.50
2018-12-18T03:21:11.191Z,5.46
2018-12-18T03:21:46.291Z,5.51
2018-12-18T03:22:20.944Z,5.53
2018-12-18T03:22:55.548Z,5.49
2018-12-18T03:23:30.267Z,5.64
2018-12-18T03:24:04.873Z,5.61
2018-12-18T03:24:39.501Z,5.61
2018-12-18T03:25:14.218Z,5.63
2018-12-18T03:25:49.117Z,5.65
2018-12-18T03:26:23.857Z,5.61
2018-12-18T03:26:58.468Z,5.61
2018-12-18T03:27:33.080Z,5.58
2018-12-18T03:28:07.686Z,5.52
2018-12-18T03:28:42.316Z,5.48
2018-12-18T03:29:17.023Z,5.45
2018-12-18T03:29:51.778Z,5.40
2018-12-18T03:30:26.666Z,5.36
2018-12-18T03:31:01.769Z,5.40
2018-12-18T03:31:37.761Z,5.36
2018-12-18T03:32:17.074Z,5.43
2018-12-18T03:32:54.646Z,5.40
2018-12-18T03:33:29.605Z,5.35
2018-12-18T03:34:04.295Z,5.44
2018-12-18T03:34:38.930Z,5.39
2018-12-18T03:35:13.553Z,5.34
2018-12-18T03:35:48.209Z,5.45
2018-12-18T03:36:23.197Z,5.56
2018-12-18T03:36:58.328Z,5.47
2018-12-18T03:37:32.975Z,5.44
2018-12-18T03:38:07.564Z,5.46
2018-12-18T03:38:42.197Z,5.42
2018-12-18T03:39:16.807Z,5.41
2018-12-18T03:39:51.430Z,5.40
2018-12-18T03:40:26.035Z,5.47
2018-12-18T03:41:01.299Z,5.37
2018-12-18T03:41:35.909Z,5.47
2018-12-18T03:42:10.592Z,5.45
2018-12-18T03:42:45.214Z,5.35
2018-12-18T03:43:19.862Z,5.31
2018-12-18T03:43:54.589Z,5.30
2018-12-18T03:44:29.206Z,5.31
2018-12-18T03:45:04.362Z,5.31
2018-12-18T03:45:39.014Z,5.30
2018-12-18T03:46:13.882Z,5.33
2018-12-18T03:46:48.580Z,5.32
2018-12-18T03:47:23.181Z,5.29
2018-12-18T03:47:57.891Z,5.24
2018-12-18T03:48:32.494Z,5.18
2018-12-18T03:49:07.637Z,5.11
2018-12-18T03:49:42.268Z,5.16
2018-12-18T03:50:16.954Z,5.11
2018-12-18T03:50:51.605Z,5.08
2018-12-18T03:51:26.285Z,5.04
2018-12-18T03:52:00.921Z,5.03
2018-12-18T03:52:35.531Z,5.00
2018-12-18T03:53:10.343Z,4.95
2018-12-18T03:53:45.097Z,4.92
2018-12-18T03:54:19.798Z,4.92
2018-12-18T03:54:54.718Z,4.96
2018-12-18T03:55:29.557Z,4.99
2018-12-18T03:56:04.219Z,4.91
2018-12-18T03:56:38.846Z,4.91
2018-12-18T03:57:13.550Z,4.92
2018-12-18T03:57:48.185Z,4.85
2018-12-18T03:58:22.921Z,4.89
2018-12-18T03:58:57.545Z,4.86
2018-12-18T03:59:32.202Z,4.86
2018-12-18T04:00:11.717Z,4.93
2018-12-18T04:00:46.613Z,4.91
2018-12-18T04:01:21.225Z,4.92
2018-12-18T04:01:55.886Z,4.98
2018-12-18T04:02:30.492Z,4.90
2018-12-18T04:03:06.130Z,4.94
2018-12-18T04:03:40.751Z,4.93
2018-12-18T04:04:15.358Z,4.89
2018-12-18T04:04:50.109Z,4.91
2018-12-18T04:05:24.836Z,4.92
2018-12-18T04:05:59.910Z,4.89
2018-12-18T04:06:34.548Z,4.87
2018-12-18T04:07:09.287Z,4.88
2018-12-18T04:07:44.178Z,4.94
2018-12-18T04:08:18.814Z,5.00
2018-12-18T04:08:53.483Z,5.07
2018-12-18T04:09:28.094Z,5.12
2018-12-18T04:10:02.773Z,5.08
2018-12-18T04:10:37.630Z,5.11
2018-12-18T04:11:12.284Z,5.12
2018-12-18T04:11:52.230Z,5.09
2018-12-18T04:12:26.953Z,5.03
2018-12-18T04:13:01.654Z,5.02
2018-12-18T04:13:36.372Z,4.99
2018-12-18T04:14:10.995Z,5.04
2018-12-18T04:14:45.589Z,5.04
2018-12-18T04:15:20.663Z,5.09
2018-12-18T04:15:55.407Z,5.04
2018-12-18T04:16:30.559Z,5.07
2018-12-18T04:17:05.635Z,4.99
2018-12-18T04:17:40.311Z,4.99
2018-12-18T04:18:15.012Z,5.03
2018-12-18T04:18:49.845Z,5.06
2018-12-18T04:19:24.483Z,5.04
2018-12-18T04:19:59.060Z,5.07
2018-12-18T04:20:34.061Z,5.03
2018-12-18T04:21:09.090Z,5.03
2018-12-18T04:21:43.712Z,4.99
2018-12-18T04:22:19.604Z,5.14
2018-12-18T04:22:54.258Z,5.09
2018-12-18T04:23:29.338Z,5.03
2018-12-18T04:24:04.542Z,5.03
2018-12-18T04:24:39.158Z,5.05
2018-12-18T04:25:13.799Z,5.13
2018-12-18T04:25:48.436Z,5.07
2018-12-18T04:26:23.081Z,5.07
2018-12-18T04:26:57.724Z,5.02
2018-12-18T04:27:32.341Z,5.06
2018-12-18T04:28:06.928Z,5.07
2018-12-18T04:28:41.565Z,5.10
2018-12-18T04:29:16.194Z,5.03
2018-12-18T04:29:50.872Z,5.09
2018-12-18T04:30:25.521Z,5.11
2018-12-18T04:31:00.138Z,5.06
2018-12-18T04:31:34.761Z,5.06
2018-12-18T04:32:09.378Z,5.06
2018-12-18T04:32:43.985Z,4.99
2018-12-18T04:33:18.898Z,4.96
2018-12-18T04:33:53.641Z,5.03
2018-12-18T04:34:28.267Z,5.11
2018-12-18T04:35:03.353Z,5.09
2018-12-18T04:35:37.958Z,5.12
2018-12-18T04:36:12.617Z,5.14
2018-12-18T04:36:47.230Z,5.03
2018-12-18T04:37:28.481Z,5.03
2018-12-18T04:38:03.207Z,5.07
2018-12-18T04:38:37.895Z,5.07
2018-12-18T04:39:12.605Z,5.05
2018-12-18T04:39:47.298Z,5.01
2018-12-18T04:40:21.970Z,5.11
2018-12-18T04:40:57.150Z,5.11
2018-12-18T04:41:31.771Z,5.06
2018-12-18T04:42:06.906Z,5.08
2018-12-18T04:42:41.536Z,4.99
2018-12-18T04:43:16.177Z,5.00
2018-12-18T04:43:50.915Z,5.09
2018-12-18T04:44:25.578Z,5.06
2018-12-18T04:45:00.231Z,5.00
2018-12-18T04:45:34.869Z,5.00
2018-12-18T04:46:09.457Z,4.97
2018-12-18T04:46:44.500Z,4.91
2018-12-18T04:47:19.259Z,4.93
2018-12-18T04:47:53.894Z,4.92
2018-12-18T04:48:28.600Z,4.92
2018-12-18T04:49:03.198Z,5.06
2018-12-18T04:49:37.793Z,5.17
2018-12-18T04:50:12.576Z,5.22
2018-12-18T04:50:47.188Z,5.19
2018-12-18T04:51:22.247Z,5.10
2018-12-18T04:51:56.836Z,5.20
2018-12-18T04:52:31.514Z,5.26
2018-12-18T04:53:06.143Z,5.21
2018-12-18T04:53:40.743Z,5.18
2018-12-18T04:54:15.389Z,5.23
2018-12-18T04:54:50.081Z,5.11
2018-12-18T04:55:24.767Z,5.08
2018-12-18T04:55:59.406Z,5.05
2018-12-18T04:56:34.106Z,5.19
2018-12-18T04:57:08.734Z,5.11
2018-12-18T04:57:43.348Z,5.05
2018-12-18T04:58:18.119Z,5.09
2018-12-18T04:58:52.883Z,5.18
2018-12-18T04:59:27.660Z,5.14
2018-12-18T05:00:02.326Z,5.13
2018-12-18T05:00:37.034Z,5.16
2018-12-18T05:01:11.633Z,5.16
2018-12-18T05:01:46.233Z,5.21
2018-12-18T05:02:20.908Z,5.11
2018-12-18T05:02:55.557Z,5.23
2018-12-18T05:03:30.212Z,5.23
2018-12-18T05:04:04.850Z,5.28
2018-12-18T05:04:39.928Z,5.19
2018-12-18T05:05:14.579Z,5.15
2018-12-18T05:05:49.217Z,5.19
2018-12-18T05:06:23.904Z,5.30
2018-12-18T05:06:58.526Z,5.27
2018-12-18T05:07:33.326Z,5.25
2018-12-18T05:08:07.949Z,5.17
2018-12-18T05:08:42.567Z,5.12
2018-12-18T05:09:17.525Z,5.07
2018-12-18T05:09:52.233Z,5.11
2018-12-18T05:10:27.095Z,5.14
2018-12-18T05:11:01.710Z,5.13
2018-12-18T05:11:36.470Z,5.09
2018-12-18T05:12:12.853Z,5.08
2018-12-18T05:12:47.499Z,5.03
2018-12-18T05:13:22.153Z,5.06
2018-12-18T05:13:56.831Z,5.07
2018-12-18T05:14:31.444Z,5.07
2018-12-18T05:15:06.423Z,5.05
2018-12-18T05:15:41.313Z,5.07
2018-12-18T05:16:15.990Z,5.21
2018-12-18T05:16:50.714Z,5.23
2018-12-18T05:17:25.615Z,5.22
2018-12-18T05:18:00.239Z,5.26
2018-12-18T05:18:34.845Z,5.24
2018-12-18T05:19:09.515Z,5.27
2018-12-18T05:19:44.107Z,5.25
2018-12-18T05:20:18.840Z,5.30
2018-12-18T05:20:53.518Z,5.29
2018-12-18T05:21:28.524Z,5.29
2018-12-18T05:22:03.631Z,5.24
2018-12-18T05:22:38.209Z,5.28
2018-12-18T05:23:12.828Z,5.33
2018-12-18T05:23:47.635Z,5.40
2018-12-18T05:24:22.312Z,5.52
2018-12-18T05:24:56.991Z,5.37
2018-12-18T05:25:31.619Z,5.36
2018-12-18T05:26:06.245Z,5.32
2018-12-18T05:26:40.936Z,5.37
2018-12-18T05:27:15.541Z,5.40
2018-12-18T05:27:50.217Z,5.34
2018-12-18T05:28:24.852Z,5.31
2018-12-18T05:28:59.485Z,5.23
2018-12-18T05:29:34.098Z,5.26
2018-12-18T05:30:09.809Z,5.34
2018-12-18T05:30:44.485Z,5.32
2018-12-18T05:31:19.185Z,5.25
2018-12-18T05:31:54.003Z,5.27
2018-12-18T05:32:28.634Z,5.27
2018-12-18T05:33:03.309Z,5.31
2018-12-18T05:33:37.905Z,5.33
2018-12-18T05:34:12.904Z,5.28
2018-12-18T05:34:47.501Z,5.20
2018-12-18T05:35:22.242Z,5.19
2018-12-18T05:35:56.894Z,5.08
2018-12-18T05:36:31.540Z,5.12
2018-12-18T05:37:06.148Z,5.12
2018-12-18T05:37:40.765Z,5.16
2018-12-18T05:38:15.489Z,5.25
2018-12-18T05:38:50.162Z,5.23
2018-12-18T05:39:24.901Z,5.25
2018-12-18T05:39:59.513Z,5.20
2018-12-18T05:40:34.111Z,5.13
2018-12-18T05:41:09.248Z,5.11
2018-12-18T05:41:43.882Z,5.15
2018-12-18T05:42:18.552Z,5.19
2018-12-18T05:42:53.165Z,5.31
2018-12-18T05:43:28.598Z,5.25
2018-12-18T05:44:04.460Z,5.34
2018-12-18T05:44:39.124Z,5.37
2018-12-18T05:45:13.808Z,5.24
2018-12-18T05:45:48.471Z,5.18
2018-12-18T05:46:23.583Z,5.18
2018-12-18T05:46:58.220Z,5.19
2018-12-18T05:47:32.798Z,5.31
2018-12-18T05:48:07.497Z,5.31
2018-12-18T05:48:42.855Z,5.45
2018-12-18T05:49:17.636Z,5.49
2018-12-18T05:49:52.293Z,5.38
2018-12-18T05:50:26.904Z,5.36
2018-12-18T05:51:01.608Z,5.28
2018-12-18T05:51:36.201Z,5.29
2018-12-18T05:52:10.820Z,5.26
2018-12-18T05:52:45.425Z,5.28
2018-12-18T05:53:20.057Z,5.34
2018-12-18T05:53:54.720Z,5.32
2018-12-18T05:54:29.329Z,5.27
2018-12-18T05:55:04.442Z,5.38
2018-12-18T05:55:39.120Z,5.43
2018-12-18T05:56:13.750Z,5.34
2018-12-18T05:56:48.405Z,5.38
2018-12-18T05:57:23.022Z,5.45
2018-12-18T05:57:57.703Z,5.41
2018-12-18T05:58:32.510Z,5.39
2018-12-18T05:59:07.114Z,5.36
2018-12-18T06:00:44.863Z,5.29
2018-12-18T06:01:19.576Z,5.29
2018-12-18T06:01:54.294Z,5.31
2018-12-18T06:02:28.908Z,5.30
2018-12-18T06:03:04.055Z,5.24
2018-12-18T06:03:38.679Z,5.34
2018-12-18T06:04:13.373Z,5.35
2018-12-18T06:04:47.999Z,5.32
2018-12-18T06:05:22.651Z,5.30
2018-12-18T06:05:57.282Z,5.29
2018-12-18T06:06:31.894Z,5.25
2018-12-18T06:07:06.531Z,5.31
2018-12-18T06:07:41.176Z,5.29
2018-12-18T06:08:15.839Z,5.41
2018-12-18T06:08:50.760Z,5.49
2018-12-18T06:09:25.405Z,5.52
2018-12-18T06:10:00.021Z,5.47
2018-12-18T06:10:35.849Z,5.45
2018-12-18T06:11:10.461Z,5.28
2018-12-18T06:11:45.136Z,5.58
2018-12-18T06:12:19.794Z,5.63
2018-12-18T06:12:54.598Z,5.57
2018-12-18T06:13:29.236Z,5.48
2018-12-18T06:14:03.856Z,5.34
2018-12-18T06:14:38.504Z,5.50
2018-12-18T06:15:13.116Z,5.41
2018-12-18T06:15:47.743Z,5.49
2018-12-18T06:16:22.428Z,5.42
2018-12-18T06:16:57.227Z,5.45
2018-12-18T06:17:31.847Z,5.40
2018-12-18T06:18:06.478Z,5.39
2018-12-18T06:18:41.093Z,5.34
2018-12-18T06:19:15.737Z,5.30
2018-12-18T06:19:50.380Z,5.29
2018-12-18T06:20:25.134Z,5.36
2018-12-18T06:21:01.924Z,5.32
2018-12-18T06:21:36.550Z,5.39
2018-12-18T06:22:11.191Z,5.43
2018-12-18T06:22:45.801Z,5.40
2018-12-18T06:23:20.572Z,5.40
2018-12-18T06:23:55.385Z,5.52
2018-12-18T06:24:30.012Z,5.47
2018-12-18T06:25:05.594Z,5.41
2018-12-18T06:25:40.526Z,5.37
2018-12-18T06:26:15.257Z,5.47
2018-12-18T06:26:49.958Z,5.43
2018-12-18T06:27:24.582Z,5.53
2018-12-18T06:27:59.180Z,5.50
2018-12-18T06:28:33.771Z,5.50
2018-12-18T06:29:08.428Z,5.49
2018-12-18T06:29:43.043Z,5.50
2018-12-18T06:30:17.742Z,5.56
2018-12-18T06:30:52.445Z,5.58
2018-12-18T06:31:27.180Z,5.50
2018-12-18T06:32:01.789Z,5.45
2018-12-18T06:32:36.504Z,5.40
2018-12-18T06:33:11.108Z,5.39
2018-12-18T06:33:45.890Z,5.34
2018-12-18T06:34:20.542Z,5.50
2018-12-18T06:34:55.193Z,5.57
2018-12-18T06:35:29.885Z,5.61
2018-12-18T06:36:04.501Z,5.55
2018-12-18T06:36:39.114Z,5.62
2018-12-18T06:37:13.713Z,5.62
2018-12-18T06:37:48.558Z,5.52
2018-12-18T06:38:23.201Z,5.46
2018-12-18T06:38:57.827Z,5.41
2018-12-18T06:39:32.464Z,5.48
2018-12-18T06:40:08.092Z,5.45
2018-12-18T06:41:46.050Z,5.47
2018-12-18T06:42:20.761Z,5.48
2018-12-18T06:42:55.645Z,5.51
2018-12-18T06:43:30.233Z,5.51
2018-12-18T06:44:04.837Z,5.49
2018-12-18T06:44:39.447Z,5.49
2018-12-18T06:45:14.129Z,5.23
2018-12-18T06:45:48.746Z,5.50
2018-12-18T06:46:23.397Z,5.52
2018-12-18T06:46:58.012Z,5.43
2018-12-18T06:47:32.637Z,5.41
2018-12-18T06:48:07.314Z,5.37
2018-12-18T06:48:41.946Z,5.39
2018-12-18T06:49:16.646Z,5.40
2018-12-18T06:49:51.333Z,5.41
2018-12-18T06:50:25.942Z,5.39
2018-12-18T06:51:01.043Z,5.35
2018-12-18T06:51:35.718Z,5.35
2018-12-18T06:52:10.335Z,5.33
2018-12-18T06:52:44.932Z,5.39
2018-12-18T06:53:19.632Z,5.34
2018-12-18T06:53:54.244Z,5.28
2018-12-18T06:54:28.914Z,5.24
2018-12-18T06:55:03.997Z,5.38
2018-12-18T06:55:38.625Z,5.48
2018-12-18T06:56:13.243Z,5.47
2018-12-18T06:56:47.894Z,5.45
2018-12-18T06:57:22.825Z,5.50
2018-12-18T06:57:57.421Z,5.43
2018-12-18T06:58:32.021Z,5.34
2018-12-18T06:59:06.685Z,5.28
2018-12-18T06:59:41.337Z,5.25
2018-12-18T07:00:16.160Z,5.34
2018-12-18T07:00:51.151Z,5.29
2018-12-18T07:01:25.767Z,5.33
2018-12-18T07:02:00.509Z,5.33
2018-12-18T07:02:35.154Z,5.31
2018-12-18T07:03:09.834Z,5.37
2018-12-18T07:03:44.469Z,5.34
2018-12-18T07:04:19.151Z,5.34
2018-12-18T07:04:53.929Z,5.24
2018-12-18T07:05:28.544Z,5.18
2018-12-18T07:06:03.183Z,5.14
2018-12-18T07:06:37.824Z,5.13
2018-12-18T07:07:12.432Z,5.20
2018-12-18T07:07:47.253Z,5.26
2018-12-18T07:08:21.965Z,5.23
2018-12-18T07:08:56.621Z,5.22
2018-12-18T07:09:31.310Z,5.22
2018-12-18T07:10:07.621Z,5.12
2018-12-18T07:10:42.256Z,5.10
2018-12-18T07:11:16.931Z,5.02
2018-12-18T07:11:51.726Z,5.07
2018-12-18T07:12:26.329Z,5.18
2018-12-18T07:13:00.954Z,5.12
2018-12-18T07:13:35.566Z,5.16
2018-12-18T07:14:10.172Z,5.07
2018-12-18T07:14:44.808Z,5.09
2018-12-18T07:15:19.485Z,5.08
2018-12-18T07:15:54.238Z,5.11
2018-12-18T07:16:28.956Z,5.09
2018-12-18T07:17:03.670Z,5.00
2018-12-18T07:17:38.607Z,5.06
2018-12-18T07:18:13.280Z,4.98
2018-12-18T07:18:48.299Z,4.94
2018-12-18T07:19:22.947Z,4.89
2018-12-18T07:19:57.686Z,4.89
2018-12-18T07:20:32.291Z,4.98
2018-12-18T07:21:06.907Z,4.89
2018-12-18T07:21:41.531Z,4.91
2018-12-18T07:22:17.200Z,4.88
2018-12-18T07:22:52.677Z,4.82
2018-12-18T07:23:27.364Z,4.92
2018-12-18T07:24:01.969Z,4.88
2018-12-18T07:24:36.626Z,4.81
2018-12-18T07:25:11.257Z,4.79
2018-12-18T07:25:46.188Z,4.78
2018-12-18T07:26:20.826Z,4.74
2018-12-18T07:26:55.428Z,4.70
2018-12-18T07:27:30.104Z,4.68
2018-12-18T07:28:04.839Z,4.69
2018-12-18T07:28:39.535Z,4.70
2018-12-18T07:29:14.247Z,4.67
2018-12-18T07:29:48.968Z,4.65
2018-12-18T07:30:23.715Z,4.64
2018-12-18T07:30:58.333Z,4.69
2018-12-18T07:31:33.021Z,4.73
2018-12-18T07:32:07.739Z,4.93
2018-12-18T07:32:42.388Z,4.89
2018-12-18T07:33:17.282Z,4.86
2018-12-18T07:33:51.935Z,4.80
2018-12-18T07:34:26.570Z,4.77
2018-12-18T07:35:01.246Z,4.79
2018-12-18T07:35:35.851Z,4.78
2018-12-18T07:36:10.450Z,4.94
2018-12-18T07:36:45.140Z,4.98
2018-12-18T07:37:19.941Z,4.91
2018-12-18T07:37:54.576Z,4.88
2018-12-18T07:38:29.336Z,5.00
2018-12-18T07:39:07.436Z,4.92
2018-12-18T07:39:42.296Z,5.01
2018-12-18T07:40:17.270Z,4.99
2018-12-18T07:40:52.084Z,4.93
2018-12-18T07:41:26.888Z,4.84
2018-12-18T07:42:01.829Z,4.78
2018-12-18T07:42:36.574Z,4.72
2018-12-18T07:43:11.211Z,4.70
2018-12-18T07:43:45.846Z,4.65
2018-12-18T07:44:20.565Z,4.60
2018-12-18T07:44:55.201Z,4.63
2018-12-18T07:45:29.886Z,4.75